sensor_id;sensor_type;location;lat;lon;timestamp;temperature;humidity
5364;DHT22;2705;41.410;2.160;2024-03-08T00:00:40;13.90;99.90
5364;DHT22;2705;41.410;2.160;2024-03-08T00:03:11;13.90;99.90
5364;DHT22;2705;41.410;2.160;2024-03-08T00:05:40;14.00;99.90
5364;DHT22;2705;41.410;2.160;2024-03-08T00:08:09;14.00;99.90
5364;DHT22;2705;41.410;2.160;2024-03-08T00:10:38;13.90;99.90
5364;DHT22;2705;41.410;2.160;2024-03-08T00:13:07;13.80;99.90
5364;DHT22;2705;41.410;2.160;2024-03-08T00:15:35;13.70;99.90
5364;DHT22;2705;41.410;2.160;2024-03-08T00:18:04;13.90;99.90
5364;DHT22;2705;41.410;2.160;2024-03-08T00:20:34;13.80;99.90
5364;DHT22;2705;41.410;2.160;2024-03-08T00:23:03;13.90;99.90
5364;DHT22;2705;41.410;2.160;2024-03-08T00:25:32;13.80;99.90
5364;DHT22;2705;41.410;2.160;2024-03-08T00:28:01;13.90;99.90
5364;DHT22;2705;41.410;2.160;2024-03-08T00:30:32;14.00;99.90
5364;DHT22;2705;41.410;2.160;2024-03-08T00:33:01;13.90;99.90
5364;DHT22;2705;41.410;2.160;2024-03-08T00:35:30;13.80;99.90
5364;DHT22;2705;41.410;2.160;2024-03-08T00:38:00;13.60;99.90
5364;DHT22;2705;41.410;2.160;2024-03-08T00:40:29;13.80;99.90
5364;DHT22;2705;41.410;2.160;2024-03-08T00:42:58;13.70;99.90
5364;DHT22;2705;41.410;2.160;2024-03-08T00:45:27;13.90;99.90
5364;DHT22;2705;41.410;2.160;2024-03-08T00:47:55;13.90;99.90
5364;DHT22;2705;41.410;2.160;2024-03-08T00:50:24;13.90;99.90
5364;DHT22;2705;41.410;2.160;2024-03-08T00:52:53;13.90;99.90
5364;DHT22;2705;41.410;2.160;2024-03-08T00:55:23;13.80;99.90
5364;DHT22;2705;41.410;2.160;2024-03-08T00:57:51;13.70;99.90
5364;DHT22;2705;41.410;2.160;2024-03-08T01:00:20;13.60;99.90
5364;DHT22;2705;41.410;2.160;2024-03-08T01:02:49;13.80;99.90
5364;DHT22;2705;41.410;2.160;2024-03-08T01:05:18;13.70;99.90
5364;DHT22;2705;41.410;2.160;2024-03-08T01:07:46;13.80;99.90
5364;DHT22;2705;41.410;2.160;2024-03-08T01:10:16;13.90;99.90
5364;DHT22;2705;41.410;2.160;2024-03-08T01:12:46;13.90;99.90
5364;DHT22;2705;41.410;2.160;2024-03-08T01:15:16;13.80;99.90
5364;DHT22;2705;41.410;2.160;2024-03-08T01:17:45;13.80;99.90
5364;DHT22;2705;41.410;2.160;2024-03-08T01:20:14;13.80;99.90
5364;DHT22;2705;41.410;2.160;2024-03-08T01:22:43;13.80;99.90
5364;DHT22;2705;41.410;2.160;2024-03-08T01:25:11;13.90;99.90
5364;DHT22;2705;41.410;2.160;2024-03-08T01:27:40;13.70;99.90
5364;DHT22;2705;41.410;2.160;2024-03-08T01:30:10;13.70;99.90
5364;DHT22;2705;41.410;2.160;2024-03-08T01:32:40;13.90;99.90
5364;DHT22;2705;41.410;2.160;2024-03-08T01:35:09;13.90;99.90
5364;DHT22;2705;41.410;2.160;2024-03-08T01:37:38;13.70;99.90
5364;DHT22;2705;41.410;2.160;2024-03-08T01:40:07;13.70;99.90
5364;DHT22;2705;41.410;2.160;2024-03-08T01:42:36;13.70;99.90
5364;DHT22;2705;41.410;2.160;2024-03-08T01:45:06;13.80;99.90
5364;DHT22;2705;41.410;2.160;2024-03-08T01:47:36;13.80;99.90
5364;DHT22;2705;41.410;2.160;2024-03-08T01:50:06;13.90;99.90
5364;DHT22;2705;41.410;2.160;2024-03-08T01:52:36;13.90;99.90
5364;DHT22;2705;41.410;2.160;2024-03-08T01:55:05;13.80;99.90
5364;DHT22;2705;41.410;2.160;2024-03-08T01:57:35;13.90;99.90
5364;DHT22;2705;41.410;2.160;2024-03-08T02:00:06;13.90;99.90
5364;DHT22;2705;41.410;2.160;2024-03-08T02:02:39;13.70;99.90
5364;DHT22;2705;41.410;2.160;2024-03-08T02:05:11;13.70;99.90
5364;DHT22;2705;41.410;2.160;2024-03-08T02:07:40;13.70;99.90
5364;DHT22;2705;41.410;2.160;2024-03-08T02:10:11;14.00;99.90
5364;DHT22;2705;41.410;2.160;2024-03-08T02:12:40;13.80;99.90
5364;DHT22;2705;41.410;2.160;2024-03-08T02:15:08;13.80;99.90
5364;DHT22;2705;41.410;2.160;2024-03-08T02:17:39;13.80;99.90
5364;DHT22;2705;41.410;2.160;2024-03-08T02:20:09;13.90;99.90
5364;DHT22;2705;41.410;2.160;2024-03-08T02:22:42;14.00;99.90
5364;DHT22;2705;41.410;2.160;2024-03-08T02:25:11;13.80;99.90
5364;DHT22;2705;41.410;2.160;2024-03-08T02:27:40;13.90;99.90
5364;DHT22;2705;41.410;2.160;2024-03-08T02:30:09;14.00;99.90
5364;DHT22;2705;41.410;2.160;2024-03-08T02:32:40;14.10;99.90
5364;DHT22;2705;41.410;2.160;2024-03-08T02:35:09;13.80;99.90
5364;DHT22;2705;41.410;2.160;2024-03-08T02:37:37;13.60;99.90
5364;DHT22;2705;41.410;2.160;2024-03-08T02:40:08;13.40;99.90
5364;DHT22;2705;41.410;2.160;2024-03-08T02:42:37;13.40;99.90
5364;DHT22;2705;41.410;2.160;2024-03-08T02:45:06;13.40;99.90
5364;DHT22;2705;41.410;2.160;2024-03-08T02:47:37;13.50;99.90
5364;DHT22;2705;41.410;2.160;2024-03-08T02:50:06;13.60;99.90
5364;DHT22;2705;41.410;2.160;2024-03-08T02:52:35;13.50;99.90
5364;DHT22;2705;41.410;2.160;2024-03-08T02:55:04;13.50;99.90
5364;DHT22;2705;41.410;2.160;2024-03-08T02:57:37;13.60;99.90
5364;DHT22;2705;41.410;2.160;2024-03-08T03:00:06;13.80;99.90
5364;DHT22;2705;41.410;2.160;2024-03-08T03:02:36;13.70;99.90
5364;DHT22;2705;41.410;2.160;2024-03-08T03:05:06;13.70;99.90
5364;DHT22;2705;41.410;2.160;2024-03-08T03:07:36;13.80;99.90
5364;DHT22;2705;41.410;2.160;2024-03-08T03:10:06;13.60;99.90
5364;DHT22;2705;41.410;2.160;2024-03-08T03:12:35;13.60;99.90
5364;DHT22;2705;41.410;2.160;2024-03-08T03:15:06;13.80;99.90
5364;DHT22;2705;41.410;2.160;2024-03-08T03:17:35;13.60;99.90
5364;DHT22;2705;41.410;2.160;2024-03-08T03:20:04;13.70;99.90
5364;DHT22;2705;41.410;2.160;2024-03-08T03:22:37;13.70;99.90
5364;DHT22;2705;41.410;2.160;2024-03-08T03:25:06;13.60;99.90
5364;DHT22;2705;41.410;2.160;2024-03-08T03:27:35;13.60;99.90
5364;DHT22;2705;41.410;2.160;2024-03-08T03:30:06;13.60;99.90
5364;DHT22;2705;41.410;2.160;2024-03-08T03:32:48;13.50;99.90
5364;DHT22;2705;41.410;2.160;2024-03-08T03:35:18;13.50;99.90
5364;DHT22;2705;41.410;2.160;2024-03-08T03:37:48;13.50;99.90
5364;DHT22;2705;41.410;2.160;2024-03-08T03:40:28;13.50;99.90
5364;DHT22;2705;41.410;2.160;2024-03-08T03:42:58;13.40;99.90
5364;DHT22;2705;41.410;2.160;2024-03-08T03:45:28;13.30;99.90
5364;DHT22;2705;41.410;2.160;2024-03-08T03:48:01;13.30;99.90
5364;DHT22;2705;41.410;2.160;2024-03-08T03:50:30;13.40;99.90
5364;DHT22;2705;41.410;2.160;2024-03-08T03:53:03;13.30;99.90
5364;DHT22;2705;41.410;2.160;2024-03-08T03:55:35;13.30;99.90
5364;DHT22;2705;41.410;2.160;2024-03-08T03:58:04;13.40;99.90
5364;DHT22;2705;41.410;2.160;2024-03-08T04:00:34;13.30;99.90
5364;DHT22;2705;41.410;2.160;2024-03-08T04:03:03;13.40;99.90
5364;DHT22;2705;41.410;2.160;2024-03-08T04:05:32;13.40;99.90
5364;DHT22;2705;41.410;2.160;2024-03-08T04:08:01;13.50;99.90
5364;DHT22;2705;41.410;2.160;2024-03-08T04:10:31;13.60;99.90
5364;DHT22;2705;41.410;2.160;2024-03-08T04:12:59;13.40;99.90
5364;DHT22;2705;41.410;2.160;2024-03-08T04:15:28;13.30;99.90
5364;DHT22;2705;41.410;2.160;2024-03-08T04:17:59;13.20;99.90
5364;DHT22;2705;41.410;2.160;2024-03-08T04:20:30;13.20;99.90
5364;DHT22;2705;41.410;2.160;2024-03-08T04:22:59;13.30;99.90
5364;DHT22;2705;41.410;2.160;2024-03-08T04:25:27;13.50;99.90
5364;DHT22;2705;41.410;2.160;2024-03-08T04:27:56;13.40;99.90
5364;DHT22;2705;41.410;2.160;2024-03-08T04:30:25;13.50;99.90
5364;DHT22;2705;41.410;2.160;2024-03-08T04:32:55;13.60;99.90
5364;DHT22;2705;41.410;2.160;2024-03-08T04:35:25;13.40;99.90
5364;DHT22;2705;41.410;2.160;2024-03-08T04:37:54;13.30;99.90
5364;DHT22;2705;41.410;2.160;2024-03-08T04:40:24;13.20;99.90
5364;DHT22;2705;41.410;2.160;2024-03-08T04:42:53;13.20;99.90
5364;DHT22;2705;41.410;2.160;2024-03-08T04:45:22;13.20;99.90
5364;DHT22;2705;41.410;2.160;2024-03-08T04:47:53;13.40;99.90
5364;DHT22;2705;41.410;2.160;2024-03-08T04:50:21;13.40;99.90
5364;DHT22;2705;41.410;2.160;2024-03-08T04:52:52;13.40;99.90
5364;DHT22;2705;41.410;2.160;2024-03-08T04:55:20;13.50;99.90
5364;DHT22;2705;41.410;2.160;2024-03-08T04:57:50;13.50;99.90
5364;DHT22;2705;41.410;2.160;2024-03-08T05:00:18;13.50;99.90
5364;DHT22;2705;41.410;2.160;2024-03-08T05:02:48;13.60;99.90
5364;DHT22;2705;41.410;2.160;2024-03-08T05:05:20;13.70;99.90
5364;DHT22;2705;41.410;2.160;2024-03-08T05:07:51;13.70;99.90
5364;DHT22;2705;41.410;2.160;2024-03-08T05:10:20;13.70;99.90
5364;DHT22;2705;41.410;2.160;2024-03-08T05:12:49;13.70;99.90
5364;DHT22;2705;41.410;2.160;2024-03-08T05:15:23;13.90;99.90
5364;DHT22;2705;41.410;2.160;2024-03-08T05:17:52;13.80;99.90
5364;DHT22;2705;41.410;2.160;2024-03-08T05:20:21;13.90;99.90
5364;DHT22;2705;41.410;2.160;2024-03-08T05:22:49;13.90;99.90
5364;DHT22;2705;41.410;2.160;2024-03-08T05:25:20;13.80;99.90
5364;DHT22;2705;41.410;2.160;2024-03-08T05:27:49;13.90;99.90
5364;DHT22;2705;41.410;2.160;2024-03-08T05:30:18;13.80;99.90
5364;DHT22;2705;41.410;2.160;2024-03-08T05:32:49;13.60;99.90
5364;DHT22;2705;41.410;2.160;2024-03-08T05:35:18;13.60;99.90
5364;DHT22;2705;41.410;2.160;2024-03-08T05:37:47;13.60;99.90
5364;DHT22;2705;41.410;2.160;2024-03-08T05:40:16;13.50;99.90
5364;DHT22;2705;41.410;2.160;2024-03-08T05:42:50;13.40;99.90
5364;DHT22;2705;41.410;2.160;2024-03-08T05:45:19;13.50;99.90
5364;DHT22;2705;41.410;2.160;2024-03-08T05:47:48;13.60;99.90
5364;DHT22;2705;41.410;2.160;2024-03-08T05:50:19;13.70;99.90
5364;DHT22;2705;41.410;2.160;2024-03-08T05:52:48;13.60;99.90
5364;DHT22;2705;41.410;2.160;2024-03-08T05:55:17;13.70;99.90
5364;DHT22;2705;41.410;2.160;2024-03-08T05:57:45;13.70;99.90
5364;DHT22;2705;41.410;2.160;2024-03-08T06:00:17;13.70;99.90
5364;DHT22;2705;41.410;2.160;2024-03-08T06:02:46;13.70;99.90
5364;DHT22;2705;41.410;2.160;2024-03-08T06:05:15;13.80;99.90
5364;DHT22;2705;41.410;2.160;2024-03-08T06:07:44;13.70;99.90
5364;DHT22;2705;41.410;2.160;2024-03-08T06:10:13;13.70;99.90
5364;DHT22;2705;41.410;2.160;2024-03-08T06:12:44;13.80;99.90
5364;DHT22;2705;41.410;2.160;2024-03-08T06:15:13;13.90;99.90
5364;DHT22;2705;41.410;2.160;2024-03-08T06:17:44;13.80;99.90
5364;DHT22;2705;41.410;2.160;2024-03-08T06:20:13;13.80;99.90
5364;DHT22;2705;41.410;2.160;2024-03-08T06:22:42;13.80;99.90
5364;DHT22;2705;41.410;2.160;2024-03-08T06:25:12;13.90;99.90
5364;DHT22;2705;41.410;2.160;2024-03-08T06:27:42;13.60;99.90
5364;DHT22;2705;41.410;2.160;2024-03-08T06:30:11;13.90;99.90
5364;DHT22;2705;41.410;2.160;2024-03-08T06:32:40;13.90;99.90
5364;DHT22;2705;41.410;2.160;2024-03-08T06:35:12;14.10;99.90
5364;DHT22;2705;41.410;2.160;2024-03-08T06:37:43;14.00;99.90
5364;DHT22;2705;41.410;2.160;2024-03-08T06:40:13;13.90;99.90
5364;DHT22;2705;41.410;2.160;2024-03-08T06:42:42;14.00;99.90
5364;DHT22;2705;41.410;2.160;2024-03-08T06:45:10;14.10;99.90
5364;DHT22;2705;41.410;2.160;2024-03-08T06:47:40;14.10;99.90
5364;DHT22;2705;41.410;2.160;2024-03-08T06:50:12;14.10;99.90
5364;DHT22;2705;41.410;2.160;2024-03-08T06:52:42;14.10;99.90
5364;DHT22;2705;41.410;2.160;2024-03-08T06:55:11;14.30;99.90
5364;DHT22;2705;41.410;2.160;2024-03-08T06:57:40;14.30;99.90
5364;DHT22;2705;41.410;2.160;2024-03-08T07:00:09;14.20;99.90
5364;DHT22;2705;41.410;2.160;2024-03-08T07:02:41;14.10;99.90
5364;DHT22;2705;41.410;2.160;2024-03-08T07:05:14;14.10;99.90
5364;DHT22;2705;41.410;2.160;2024-03-08T07:07:43;14.00;99.90
5364;DHT22;2705;41.410;2.160;2024-03-08T07:10:12;14.10;99.90
5364;DHT22;2705;41.410;2.160;2024-03-08T07:12:42;14.20;99.90
5364;DHT22;2705;41.410;2.160;2024-03-08T07:15:11;14.10;99.90
5364;DHT22;2705;41.410;2.160;2024-03-08T07:17:42;14.20;99.90
5364;DHT22;2705;41.410;2.160;2024-03-08T07:20:14;14.20;99.90
5364;DHT22;2705;41.410;2.160;2024-03-08T07:22:46;14.30;99.90
5364;DHT22;2705;41.410;2.160;2024-03-08T07:25:18;14.40;99.90
5364;DHT22;2705;41.410;2.160;2024-03-08T07:27:51;14.40;99.90
5364;DHT22;2705;41.410;2.160;2024-03-08T07:30:20;14.40;99.90
5364;DHT22;2705;41.410;2.160;2024-03-08T07:33:06;14.40;99.90
5364;DHT22;2705;41.410;2.160;2024-03-08T07:35:41;14.30;99.90
5364;DHT22;2705;41.410;2.160;2024-03-08T07:38:11;14.20;99.90
5364;DHT22;2705;41.410;2.160;2024-03-08T07:40:40;14.30;99.90
5364;DHT22;2705;41.410;2.160;2024-03-08T07:43:12;14.40;99.90
5364;DHT22;2705;41.410;2.160;2024-03-08T07:45:41;14.40;99.90
5364;DHT22;2705;41.410;2.160;2024-03-08T07:48:10;14.30;99.90
5364;DHT22;2705;41.410;2.160;2024-03-08T07:50:42;14.50;99.90
5364;DHT22;2705;41.410;2.160;2024-03-08T07:53:10;14.50;99.90
5364;DHT22;2705;41.410;2.160;2024-03-08T07:55:39;14.60;99.90
5364;DHT22;2705;41.410;2.160;2024-03-08T07:58:09;14.50;99.90
5364;DHT22;2705;41.410;2.160;2024-03-08T08:00:40;14.60;99.90
5364;DHT22;2705;41.410;2.160;2024-03-08T08:03:10;14.50;99.90
5364;DHT22;2705;41.410;2.160;2024-03-08T08:05:40;14.40;99.90
5364;DHT22;2705;41.410;2.160;2024-03-08T08:08:10;14.10;99.90
5364;DHT22;2705;41.410;2.160;2024-03-08T08:10:39;14.10;99.90
5364;DHT22;2705;41.410;2.160;2024-03-08T08:13:07;14.10;99.90
5364;DHT22;2705;41.410;2.160;2024-03-08T08:15:36;13.90;99.90
5364;DHT22;2705;41.410;2.160;2024-03-08T08:18:05;13.70;99.90
5364;DHT22;2705;41.410;2.160;2024-03-08T08:20:37;13.80;99.90
5364;DHT22;2705;41.410;2.160;2024-03-08T08:23:06;13.90;99.90
5364;DHT22;2705;41.410;2.160;2024-03-08T08:25:37;13.80;99.90
5364;DHT22;2705;41.410;2.160;2024-03-08T08:28:06;13.70;99.90
5364;DHT22;2705;41.410;2.160;2024-03-08T08:30:35;13.70;99.90
5364;DHT22;2705;41.410;2.160;2024-03-08T08:33:05;13.70;99.90
5364;DHT22;2705;41.410;2.160;2024-03-08T08:35:35;13.80;99.90
5364;DHT22;2705;41.410;2.160;2024-03-08T08:38:04;13.90;99.90
5364;DHT22;2705;41.410;2.160;2024-03-08T08:40:34;13.90;99.90
5364;DHT22;2705;41.410;2.160;2024-03-08T08:43:05;13.90;99.90
5364;DHT22;2705;41.410;2.160;2024-03-08T08:45:34;13.90;99.90
5364;DHT22;2705;41.410;2.160;2024-03-08T08:48:03;13.90;99.90
5364;DHT22;2705;41.410;2.160;2024-03-08T08:50:33;14.00;99.90
5364;DHT22;2705;41.410;2.160;2024-03-08T08:53:02;14.00;99.90
5364;DHT22;2705;41.410;2.160;2024-03-08T08:55:31;13.90;99.90
5364;DHT22;2705;41.410;2.160;2024-03-08T08:58:03;14.00;99.90
5364;DHT22;2705;41.410;2.160;2024-03-08T09:00:33;14.10;99.90
5364;DHT22;2705;41.410;2.160;2024-03-08T09:03:02;14.10;99.90
5364;DHT22;2705;41.410;2.160;2024-03-08T09:05:31;14.10;99.90
5364;DHT22;2705;41.410;2.160;2024-03-08T09:08:02;14.30;99.90
5364;DHT22;2705;41.410;2.160;2024-03-08T09:10:31;14.30;99.90
5364;DHT22;2705;41.410;2.160;2024-03-08T09:13:01;14.30;99.90
5364;DHT22;2705;41.410;2.160;2024-03-08T09:15:33;14.40;99.90
5364;DHT22;2705;41.410;2.160;2024-03-08T09:18:04;14.50;99.90
5364;DHT22;2705;41.410;2.160;2024-03-08T09:20:33;14.60;99.90
5364;DHT22;2705;41.410;2.160;2024-03-08T09:23:02;14.70;99.90
5364;DHT22;2705;41.410;2.160;2024-03-08T09:25:32;14.80;99.90
5364;DHT22;2705;41.410;2.160;2024-03-08T09:28:01;15.00;99.90
5364;DHT22;2705;41.410;2.160;2024-03-08T09:30:30;15.10;99.90
5364;DHT22;2705;41.410;2.160;2024-03-08T09:33:00;15.20;99.90
5364;DHT22;2705;41.410;2.160;2024-03-08T09:35:29;15.30;99.90
5364;DHT22;2705;41.410;2.160;2024-03-08T09:37:58;15.40;99.90
5364;DHT22;2705;41.410;2.160;2024-03-08T09:40:27;15.50;99.90
5364;DHT22;2705;41.410;2.160;2024-03-08T09:42:56;15.40;99.90
5364;DHT22;2705;41.410;2.160;2024-03-08T09:45:24;15.40;99.90
5364;DHT22;2705;41.410;2.160;2024-03-08T09:47:53;15.40;99.90
5364;DHT22;2705;41.410;2.160;2024-03-08T09:50:24;15.50;99.90
5364;DHT22;2705;41.410;2.160;2024-03-08T09:52:54;15.50;99.90
5364;DHT22;2705;41.410;2.160;2024-03-08T09:55:24;15.60;99.90
5364;DHT22;2705;41.410;2.160;2024-03-08T09:57:55;15.60;99.90
5364;DHT22;2705;41.410;2.160;2024-03-08T10:00:41;15.40;99.90
5364;DHT22;2705;41.410;2.160;2024-03-08T10:03:10;15.60;99.90
5364;DHT22;2705;41.410;2.160;2024-03-08T10:05:43;15.70;99.90
5364;DHT22;2705;41.410;2.160;2024-03-08T10:08:12;15.60;99.90
5364;DHT22;2705;41.410;2.160;2024-03-08T10:10:41;15.60;99.90
5364;DHT22;2705;41.410;2.160;2024-03-08T10:13:10;15.80;99.90
5364;DHT22;2705;41.410;2.160;2024-03-08T10:15:41;16.00;99.90
5364;DHT22;2705;41.410;2.160;2024-03-08T10:18:09;15.90;99.90
5364;DHT22;2705;41.410;2.160;2024-03-08T10:20:39;16.00;99.90
5364;DHT22;2705;41.410;2.160;2024-03-08T10:23:09;15.90;99.90
5364;DHT22;2705;41.410;2.160;2024-03-08T10:25:38;16.00;99.90
5364;DHT22;2705;41.410;2.160;2024-03-08T10:28:07;16.20;99.90
5364;DHT22;2705;41.410;2.160;2024-03-08T10:30:36;16.20;99.90
5364;DHT22;2705;41.410;2.160;2024-03-08T10:33:05;16.30;99.90
5364;DHT22;2705;41.410;2.160;2024-03-08T10:35:34;16.00;99.90
5364;DHT22;2705;41.410;2.160;2024-03-08T10:38:03;16.20;99.90
5364;DHT22;2705;41.410;2.160;2024-03-08T10:40:36;16.10;99.90
5364;DHT22;2705;41.410;2.160;2024-03-08T10:43:10;16.30;99.90
5364;DHT22;2705;41.410;2.160;2024-03-08T10:45:41;16.40;99.90
5364;DHT22;2705;41.410;2.160;2024-03-08T10:48:19;16.50;99.90
5364;DHT22;2705;41.410;2.160;2024-03-08T10:50:55;16.60;99.90
5364;DHT22;2705;41.410;2.160;2024-03-08T10:53:26;16.80;99.90
5364;DHT22;2705;41.410;2.160;2024-03-08T10:55:58;16.70;99.90
5364;DHT22;2705;41.410;2.160;2024-03-08T10:58:27;16.80;99.90
5364;DHT22;2705;41.410;2.160;2024-03-08T11:00:56;16.70;99.90
5364;DHT22;2705;41.410;2.160;2024-03-08T11:03:44;17.00;99.90
5364;DHT22;2705;41.410;2.160;2024-03-08T11:06:16;17.10;99.90
5364;DHT22;2705;41.410;2.160;2024-03-08T11:08:47;17.20;99.90
5364;DHT22;2705;41.410;2.160;2024-03-08T11:11:28;17.30;99.90
5364;DHT22;2705;41.410;2.160;2024-03-08T11:14:02;17.60;99.90
5364;DHT22;2705;41.410;2.160;2024-03-08T11:16:38;17.60;99.90
5364;DHT22;2705;41.410;2.160;2024-03-08T11:19:23;17.50;99.90
5364;DHT22;2705;41.410;2.160;2024-03-08T11:22:01;17.60;99.90
5364;DHT22;2705;41.410;2.160;2024-03-08T11:24:37;17.50;99.90
5364;DHT22;2705;41.410;2.160;2024-03-08T11:27:10;17.60;99.90
5364;DHT22;2705;41.410;2.160;2024-03-08T11:29:40;17.40;99.90
5364;DHT22;2705;41.410;2.160;2024-03-08T11:32:09;17.50;99.90
5364;DHT22;2705;41.410;2.160;2024-03-08T11:34:39;17.50;99.90
5364;DHT22;2705;41.410;2.160;2024-03-08T11:37:12;17.40;99.90
5364;DHT22;2705;41.410;2.160;2024-03-08T11:39:52;17.30;99.90
5364;DHT22;2705;41.410;2.160;2024-03-08T11:42:28;17.40;99.90
5364;DHT22;2705;41.410;2.160;2024-03-08T11:44:57;17.60;99.90
5364;DHT22;2705;41.410;2.160;2024-03-08T11:47:26;17.70;99.90
5364;DHT22;2705;41.410;2.160;2024-03-08T11:49:57;17.80;99.90
5364;DHT22;2705;41.410;2.160;2024-03-08T11:52:26;17.90;99.90
5364;DHT22;2705;41.410;2.160;2024-03-08T11:54:56;18.00;99.90
5364;DHT22;2705;41.410;2.160;2024-03-08T11:57:25;17.90;99.90
5364;DHT22;2705;41.410;2.160;2024-03-08T11:59:57;17.90;99.90
5364;DHT22;2705;41.410;2.160;2024-03-08T12:02:26;18.10;99.90
5364;DHT22;2705;41.410;2.160;2024-03-08T12:04:58;18.10;99.90
5364;DHT22;2705;41.410;2.160;2024-03-08T12:07:28;18.00;99.90
5364;DHT22;2705;41.410;2.160;2024-03-08T12:10:15;18.10;99.90
5364;DHT22;2705;41.410;2.160;2024-03-08T12:12:45;18.20;99.90
5364;DHT22;2705;41.410;2.160;2024-03-08T12:15:16;18.20;99.90
5364;DHT22;2705;41.410;2.160;2024-03-08T12:17:46;18.30;99.90
5364;DHT22;2705;41.410;2.160;2024-03-08T12:20:16;18.00;99.90
5364;DHT22;2705;41.410;2.160;2024-03-08T12:22:45;18.10;99.90
5364;DHT22;2705;41.410;2.160;2024-03-08T12:25:14;18.20;99.90
5364;DHT22;2705;41.410;2.160;2024-03-08T12:27:43;18.20;99.90
5364;DHT22;2705;41.410;2.160;2024-03-08T12:30:19;18.40;99.90
5364;DHT22;2705;41.410;2.160;2024-03-08T12:32:50;18.60;99.90
5364;DHT22;2705;41.410;2.160;2024-03-08T12:35:20;18.30;99.90
5364;DHT22;2705;41.410;2.160;2024-03-08T12:37:50;18.20;99.90
5364;DHT22;2705;41.410;2.160;2024-03-08T12:40:25;17.90;99.90
5364;DHT22;2705;41.410;2.160;2024-03-08T12:42:55;17.90;99.90
5364;DHT22;2705;41.410;2.160;2024-03-08T12:45:25;17.70;99.90
5364;DHT22;2705;41.410;2.160;2024-03-08T12:47:54;18.10;99.90
5364;DHT22;2705;41.410;2.160;2024-03-08T12:50:23;18.30;99.90
5364;DHT22;2705;41.410;2.160;2024-03-08T12:52:52;18.10;99.90
5364;DHT22;2705;41.410;2.160;2024-03-08T12:55:21;18.20;99.90
5364;DHT22;2705;41.410;2.160;2024-03-08T12:57:50;18.30;99.90
5364;DHT22;2705;41.410;2.160;2024-03-08T13:00:20;18.30;99.90
5364;DHT22;2705;41.410;2.160;2024-03-08T13:02:52;18.40;99.90
5364;DHT22;2705;41.410;2.160;2024-03-08T13:05:21;18.40;99.90
5364;DHT22;2705;41.410;2.160;2024-03-08T13:07:50;18.30;99.90
5364;DHT22;2705;41.410;2.160;2024-03-08T13:10:20;18.20;99.90
5364;DHT22;2705;41.410;2.160;2024-03-08T13:12:50;18.00;99.90
5364;DHT22;2705;41.410;2.160;2024-03-08T13:15:20;18.10;99.90
5364;DHT22;2705;41.410;2.160;2024-03-08T13:17:49;18.10;99.90
5364;DHT22;2705;41.410;2.160;2024-03-08T13:20:20;18.10;99.90
5364;DHT22;2705;41.410;2.160;2024-03-08T13:22:59;18.10;99.90
5364;DHT22;2705;41.410;2.160;2024-03-08T13:25:29;18.10;99.90
5364;DHT22;2705;41.410;2.160;2024-03-08T13:27:58;18.20;99.90
5364;DHT22;2705;41.410;2.160;2024-03-08T13:30:28;18.10;99.90
5364;DHT22;2705;41.410;2.160;2024-03-08T13:32:58;18.10;99.90
5364;DHT22;2705;41.410;2.160;2024-03-08T13:35:27;18.00;99.90
5364;DHT22;2705;41.410;2.160;2024-03-08T13:37:57;18.10;99.90
5364;DHT22;2705;41.410;2.160;2024-03-08T13:40:26;18.10;99.90
5364;DHT22;2705;41.410;2.160;2024-03-08T13:42:55;18.10;99.90
5364;DHT22;2705;41.410;2.160;2024-03-08T13:45:25;18.20;99.90
5364;DHT22;2705;41.410;2.160;2024-03-08T13:47:54;18.20;99.90
5364;DHT22;2705;41.410;2.160;2024-03-08T13:50:23;18.30;99.90
5364;DHT22;2705;41.410;2.160;2024-03-08T13:52:55;18.20;99.90
5364;DHT22;2705;41.410;2.160;2024-03-08T13:55:25;17.70;99.90
5364;DHT22;2705;41.410;2.160;2024-03-08T13:57:55;17.60;99.90
5364;DHT22;2705;41.410;2.160;2024-03-08T14:00:25;17.50;99.90
5364;DHT22;2705;41.410;2.160;2024-03-08T14:02:56;17.70;99.90
5364;DHT22;2705;41.410;2.160;2024-03-08T14:05:25;17.70;99.90
5364;DHT22;2705;41.410;2.160;2024-03-08T14:07:56;17.30;99.90
5364;DHT22;2705;41.410;2.160;2024-03-08T14:10:24;17.30;99.90
5364;DHT22;2705;41.410;2.160;2024-03-08T14:12:54;17.20;99.90
5364;DHT22;2705;41.410;2.160;2024-03-08T14:15:23;17.30;99.90
5364;DHT22;2705;41.410;2.160;2024-03-08T14:17:52;17.60;99.90
5364;DHT22;2705;41.410;2.160;2024-03-08T14:20:21;17.70;99.90
5364;DHT22;2705;41.410;2.160;2024-03-08T14:22:53;17.50;99.90
5364;DHT22;2705;41.410;2.160;2024-03-08T14:25:24;17.40;99.90
5364;DHT22;2705;41.410;2.160;2024-03-08T14:27:53;17.50;99.90
5364;DHT22;2705;41.410;2.160;2024-03-08T14:30:25;17.60;99.90
5364;DHT22;2705;41.410;2.160;2024-03-08T14:33:05;17.70;99.90
5364;DHT22;2705;41.410;2.160;2024-03-08T14:35:36;17.70;99.90
5364;DHT22;2705;41.410;2.160;2024-03-08T14:38:05;17.60;99.90
5364;DHT22;2705;41.410;2.160;2024-03-08T14:40:37;17.60;99.90
5364;DHT22;2705;41.410;2.160;2024-03-08T14:43:06;17.50;99.90
5364;DHT22;2705;41.410;2.160;2024-03-08T14:45:35;17.60;99.90
5364;DHT22;2705;41.410;2.160;2024-03-08T14:48:05;17.50;99.90
5364;DHT22;2705;41.410;2.160;2024-03-08T14:50:34;17.50;99.90
5364;DHT22;2705;41.410;2.160;2024-03-08T14:53:04;17.40;99.90
5364;DHT22;2705;41.410;2.160;2024-03-08T14:55:34;17.30;99.90
5364;DHT22;2705;41.410;2.160;2024-03-08T14:58:05;17.30;99.90
5364;DHT22;2705;41.410;2.160;2024-03-08T15:00:33;17.40;99.90
5364;DHT22;2705;41.410;2.160;2024-03-08T15:03:03;17.50;99.90
5364;DHT22;2705;41.410;2.160;2024-03-08T15:05:34;17.40;99.90
5364;DHT22;2705;41.410;2.160;2024-03-08T15:08:06;17.40;99.90
5364;DHT22;2705;41.410;2.160;2024-03-08T15:10:39;17.20;99.90
5364;DHT22;2705;41.410;2.160;2024-03-08T15:13:10;16.90;99.90
5364;DHT22;2705;41.410;2.160;2024-03-08T15:15:49;16.70;99.90
5364;DHT22;2705;41.410;2.160;2024-03-08T15:18:22;16.80;99.90
5364;DHT22;2705;41.410;2.160;2024-03-08T15:20:58;16.60;99.90
5364;DHT22;2705;41.410;2.160;2024-03-08T15:23:27;16.50;99.90
5364;DHT22;2705;41.410;2.160;2024-03-08T15:25:56;16.70;99.90
5364;DHT22;2705;41.410;2.160;2024-03-08T15:28:26;16.80;99.90
5364;DHT22;2705;41.410;2.160;2024-03-08T15:31:03;16.80;99.90
5364;DHT22;2705;41.410;2.160;2024-03-08T15:33:35;16.80;99.90
5364;DHT22;2705;41.410;2.160;2024-03-08T15:36:10;16.70;99.90
5364;DHT22;2705;41.410;2.160;2024-03-08T15:38:41;16.70;99.90
5364;DHT22;2705;41.410;2.160;2024-03-08T15:41:11;16.60;99.90
5364;DHT22;2705;41.410;2.160;2024-03-08T15:43:42;16.60;99.90
5364;DHT22;2705;41.410;2.160;2024-03-08T15:46:11;16.40;99.90
5364;DHT22;2705;41.410;2.160;2024-03-08T15:48:40;16.60;99.90
5364;DHT22;2705;41.410;2.160;2024-03-08T15:51:09;16.70;99.90
5364;DHT22;2705;41.410;2.160;2024-03-08T15:53:38;16.40;99.90
5364;DHT22;2705;41.410;2.160;2024-03-08T15:56:07;16.50;99.90
5364;DHT22;2705;41.410;2.160;2024-03-08T15:58:36;16.50;99.90
5364;DHT22;2705;41.410;2.160;2024-03-08T16:04:03;16.30;99.90
5364;DHT22;2705;41.410;2.160;2024-03-08T16:06:34;16.40;99.90
5364;DHT22;2705;41.410;2.160;2024-03-08T16:09:05;16.50;99.90
5364;DHT22;2705;41.410;2.160;2024-03-08T16:11:40;16.30;99.90
5364;DHT22;2705;41.410;2.160;2024-03-08T16:14:10;16.50;99.90
5364;DHT22;2705;41.410;2.160;2024-03-08T16:16:39;16.50;99.90
5364;DHT22;2705;41.410;2.160;2024-03-08T16:19:09;16.40;99.90
5364;DHT22;2705;41.410;2.160;2024-03-08T16:21:41;16.40;99.90
5364;DHT22;2705;41.410;2.160;2024-03-08T16:24:11;16.60;99.90